createdAt,value
2023-12-09T00:01:46.901Z,-15.24
2023-12-09T00:06:49.987Z,-15.18
2023-12-09T00:11:52.424Z,-15.28
2023-12-09T00:16:54.472Z,-15.26
2023-12-09T00:21:56.548Z,-15.32
2023-12-09T00:26:58.641Z,-15.28
2023-12-09T00:32:00.705Z,-15.18
2023-12-09T00:37:02.824Z,-15.18
2023-12-09T00:42:05.327Z,-15.21
2023-12-09T00:47:07.341Z,-15.18
2023-12-09T00:52:09.509Z,-15.22
2023-12-09T00:57:11.663Z,-15.19
2023-12-09T01:02:14.000Z,-15.14
2023-12-09T01:07:16.091Z,-15.24
2023-12-09T01:12:18.396Z,-15.28
2023-12-09T01:17:20.744Z,-15.27
2023-12-09T01:22:22.809Z,-15.24
2023-12-09T01:27:25.080Z,-15.22
2023-12-09T01:32:27.521Z,-15.14
2023-12-09T01:37:29.704Z,-15.14
2023-12-09T01:42:31.982Z,-15.24
2023-12-09T01:47:34.259Z,-15.28
2023-12-09T01:52:36.340Z,-15.24
2023-12-09T01:57:38.502Z,-15.23
2023-12-09T02:02:40.687Z,-15.21
2023-12-09T02:07:42.909Z,-15.26
2023-12-09T02:12:53.973Z,-15.40
2023-12-09T02:18:05.838Z,-15.46
2023-12-09T02:23:27.886Z,-15.44
2023-12-09T02:28:30.041Z,-15.37
2023-12-09T02:33:32.368Z,-15.38
2023-12-09T02:38:34.489Z,-15.47
2023-12-09T02:43:37.734Z,-15.35
2023-12-09T02:48:39.947Z,-15.37
2023-12-09T02:53:42.138Z,-15.50
2023-12-09T02:58:44.301Z,-15.40
2023-12-09T03:03:46.636Z,-15.53
2023-12-09T03:08:48.748Z,-15.41
2023-12-09T03:13:50.814Z,-15.29
2023-12-09T03:18:53.111Z,-15.32
2023-12-09T03:23:55.279Z,-15.34
2023-12-09T03:28:57.411Z,-15.24
2023-12-09T03:33:59.759Z,-15.18
2023-12-09T03:39:01.939Z,-15.25
2023-12-09T03:44:04.345Z,-15.14
2023-12-09T03:49:06.435Z,-15.33
2023-12-09T03:54:08.611Z,-15.46
2023-12-09T03:59:10.724Z,-15.50
2023-12-09T04:04:12.888Z,-15.45
2023-12-09T04:09:15.070Z,-15.48
2023-12-09T04:14:17.129Z,-15.48
2023-12-09T04:19:19.474Z,-15.61
2023-12-09T04:24:21.779Z,-15.42
2023-12-09T04:29:24.113Z,-15.44
2023-12-09T04:34:26.162Z,-15.48
2023-12-09T04:39:28.401Z,-15.49
2023-12-09T04:44:30.533Z,-15.32
2023-12-09T04:49:32.652Z,-15.34
2023-12-09T04:54:34.921Z,-15.50
2023-12-09T04:59:37.179Z,-15.40
2023-12-09T05:04:39.323Z,-15.27
2023-12-09T05:09:41.584Z,-15.34
2023-12-09T05:14:43.770Z,-15.25
2023-12-09T05:19:45.852Z,-15.15
2023-12-09T05:24:47.832Z,-15.16
2023-12-09T05:29:50.337Z,-15.10
2023-12-09T05:34:52.350Z,-15.25
2023-12-09T05:39:54.314Z,-15.26
2023-12-09T05:44:56.530Z,-15.27
2023-12-09T05:49:58.782Z,-15.24
2023-12-09T05:55:00.900Z,-15.03
2023-12-09T06:00:02.998Z,-14.95
2023-12-09T06:05:06.988Z,-14.97
2023-12-09T06:10:09.678Z,-14.79
2023-12-09T06:15:11.730Z,-14.83
2023-12-09T06:20:14.913Z,-14.83
2023-12-09T06:25:17.254Z,-14.91
2023-12-09T06:30:19.455Z,-14.97
2023-12-09T06:35:21.527Z,-15.05
2023-12-09T06:40:24.159Z,-14.97
2023-12-09T06:45:26.246Z,-14.93
2023-12-09T06:50:28.519Z,-15.01
2023-12-09T06:55:30.665Z,-14.94
2023-12-09T07:00:32.915Z,-14.75
2023-12-09T07:05:35.146Z,-14.75
2023-12-09T07:10:37.281Z,-14.82
2023-12-09T07:15:39.450Z,-14.89
2023-12-09T07:20:41.558Z,-14.76
2023-12-09T07:25:43.784Z,-14.69
2023-12-09T07:30:45.797Z,-14.61
2023-12-09T07:35:47.949Z,-14.55
2023-12-09T07:40:50.048Z,-14.46
2023-12-09T07:45:52.110Z,-14.82
2023-12-09T07:50:54.289Z,-14.42
2023-12-09T07:55:56.572Z,-14.70
2023-12-09T08:01:00.694Z,-14.54
2023-12-09T08:06:03.088Z,-14.72
2023-12-09T08:11:06.297Z,-14.53
2023-12-09T08:16:09.254Z,-14.40
2023-12-09T08:21:11.458Z,-14.82
2023-12-09T08:26:18.088Z,-14.93
2023-12-09T08:31:20.322Z,-14.77
2023-12-09T08:36:22.577Z,-14.64
2023-12-09T08:41:26.245Z,-15.05
2023-12-09T08:46:29.586Z,-15.08
2023-12-09T08:51:32.049Z,-14.92
2023-12-09T08:56:34.431Z,-14.85
2023-12-09T09:01:37.222Z,-14.73
2023-12-09T09:06:39.711Z,-14.85
2023-12-09T09:11:42.062Z,-14.77
2023-12-09T09:16:44.154Z,-14.65
2023-12-09T09:21:47.908Z,-14.83
2023-12-09T09:26:50.177Z,-14.74
2023-12-09T09:31:53.081Z,-14.71
2023-12-09T09:36:55.215Z,-14.64
2023-12-09T09:42:03.320Z,-14.60
2023-12-09T09:47:05.472Z,-14.52
2023-12-09T09:52:07.510Z,-14.52
2023-12-09T09:57:09.976Z,-14.43
2023-12-09T10:02:12.299Z,-14.09
2023-12-09T10:07:14.689Z,-14.22
2023-12-09T10:12:16.957Z,-14.17
2023-12-09T10:17:19.997Z,-13.93
2023-12-09T10:22:22.389Z,-13.96
2023-12-09T10:27:25.593Z,-14.22
2023-12-09T10:32:28.535Z,-14.30
2023-12-09T10:37:31.024Z,-14.52
2023-12-09T10:42:33.323Z,-14.52
2023-12-09T10:47:35.852Z,-14.35
2023-12-09T10:52:39.345Z,-14.68
2023-12-09T10:57:42.085Z,-14.68
2023-12-09T11:02:45.543Z,-14.67
2023-12-09T11:07:48.322Z,-14.59
2023-12-09T11:12:50.512Z,-14.43
2023-12-09T11:17:55.171Z,-14.65
2023-12-09T11:22:58.220Z,-14.60
2023-12-09T11:28:00.364Z,-14.62
2023-12-09T11:33:03.383Z,-14.75
2023-12-09T11:38:07.182Z,-14.62
2023-12-09T11:43:09.685Z,-14.75
2023-12-09T11:48:12.239Z,-14.72
2023-12-09T11:53:14.386Z,-14.87
2023-12-09T11:58:16.671Z,-14.92
2023-12-09T12:03:18.793Z,-15.17
2023-12-09T12:08:21.472Z,-15.08
2023-12-09T12:13:23.668Z,-14.93
2023-12-09T12:18:26.007Z,-14.79
2023-12-09T12:23:32.795Z,-14.71
2023-12-09T12:28:35.354Z,-14.65
2023-12-09T12:33:37.798Z,-14.59
2023-12-09T12:38:40.141Z,-14.73
2023-12-09T12:43:42.626Z,-15.07
2023-12-09T12:48:45.025Z,-15.18
2023-12-09T12:53:47.247Z,-15.15
2023-12-09T12:58:49.356Z,-15.16
2023-12-09T13:03:51.561Z,-15.27
2023-12-09T13:08:53.530Z,-15.25
2023-12-09T13:13:55.786Z,-15.39
2023-12-09T13:18:58.733Z,-15.48
2023-12-09T13:24:01.516Z,-15.45
2023-12-09T13:29:03.786Z,-15.39
2023-12-09T13:34:06.477Z,-15.25
2023-12-09T13:39:08.679Z,-15.23
2023-12-09T13:44:10.682Z,-15.34
2023-12-09T13:49:13.987Z,-15.49
2023-12-09T13:54:16.802Z,-15.46
2023-12-09T13:59:18.860Z,-15.55
2023-12-09T14:04:20.972Z,-15.60
2023-12-09T14:09:23.223Z,-15.61
2023-12-09T14:14:25.356Z,-15.78
2023-12-09T14:19:27.447Z,-15.77
2023-12-09T14:24:29.758Z,-15.79
2023-12-09T14:29:31.738Z,-15.77
2023-12-09T14:34:34.172Z,-15.83
2023-12-09T14:39:36.583Z,-15.84
2023-12-09T14:44:38.787Z,-15.91
2023-12-09T14:49:41.256Z,-15.98
2023-12-09T14:54:43.568Z,-15.97
2023-12-09T14:59:45.745Z,-16.04
2023-12-09T15:04:48.188Z,-16.08
2023-12-09T15:09:50.565Z,-15.97
2023-12-09T15:14:52.788Z,-15.93
2023-12-09T15:19:55.129Z,-15.92
2023-12-09T15:24:57.177Z,-16.00
2023-12-09T15:29:59.220Z,-15.98
2023-12-09T15:35:01.434Z,-15.95
2023-12-09T15:40:06.609Z,-15.95
2023-12-09T15:45:09.462Z,-15.93
2023-12-09T15:50:11.864Z,-15.93
2023-12-09T15:55:14.032Z,-15.89
2023-12-09T16:00:17.603Z,-15.83
2023-12-09T16:05:20.042Z,-15.83
2023-12-09T16:10:22.338Z,-15.83
2023-12-09T16:15:24.518Z,-15.85
2023-12-09T16:20:26.710Z,-15.72
2023-12-09T16:25:28.770Z,-15.74
2023-12-09T16:30:31.012Z,-15.71
2023-12-09T16:35:33.380Z,-15.57
2023-12-09T16:40:35.384Z,-15.54
2023-12-09T16:45:37.436Z,-15.52
2023-12-09T16:50:39.596Z,-15.48
2023-12-09T16:55:42.913Z,-15.51
2023-12-09T17:00:45.087Z,-15.46
2023-12-09T17:05:47.461Z,-15.38
2023-12-09T17:10:49.561Z,-15.39
2023-12-09T17:15:51.733Z,-15.47
2023-12-09T17:20:53.901Z,-15.42
2023-12-09T17:25:56.085Z,-15.31
2023-12-09T17:30:58.228Z,-15.36
2023-12-09T17:36:00.508Z,-15.26
2023-12-09T17:41:02.639Z,-15.24
2023-12-09T17:46:04.941Z,-15.24
2023-12-09T17:51:07.086Z,-15.19
2023-12-09T17:56:09.742Z,-15.18
2023-12-09T18:01:12.359Z,-15.22
2023-12-09T18:06:15.226Z,-15.19
2023-12-09T18:11:17.381Z,-15.10
2023-12-09T18:16:19.446Z,-15.01
2023-12-09T18:21:21.667Z,-14.99
2023-12-09T18:26:23.715Z,-15.18
2023-12-09T18:31:25.927Z,-15.30
2023-12-09T18:36:28.497Z,-15.15
2023-12-09T18:41:30.811Z,-15.44
2023-12-09T18:46:33.085Z,-15.36
2023-12-09T18:51:35.493Z,-15.37
2023-12-09T18:56:37.768Z,-15.40
2023-12-09T19:01:40.110Z,-15.32
2023-12-09T19:06:53.498Z,-15.27
2023-12-09T19:11:59.024Z,-15.38
2023-12-09T19:17:01.288Z,-15.40
2023-12-09T19:22:03.397Z,-15.44
2023-12-09T19:27:05.842Z,-15.35
2023-12-09T19:32:08.182Z,-15.21
2023-12-09T19:37:10.198Z,-15.31
2023-12-09T19:42:12.352Z,-15.30
2023-12-09T19:47:14.542Z,-15.15
2023-12-09T19:52:16.723Z,-15.20
2023-12-09T19:57:19.202Z,-15.21
2023-12-09T20:02:21.541Z,-15.02
2023-12-09T20:07:23.773Z,-15.01
2023-12-09T20:12:26.350Z,-15.07
2023-12-09T20:17:28.783Z,-15.01
2023-12-09T20:22:31.416Z,-15.01
2023-12-09T20:27:33.991Z,-15.09
2023-12-09T20:32:36.398Z,-15.00
2023-12-09T20:37:38.626Z,-14.94
2023-12-09T20:42:40.960Z,-14.86
2023-12-09T20:47:43.081Z,-14.96
2023-12-09T20:52:45.342Z,-14.84
2023-12-09T20:57:47.525Z,-14.80
2023-12-09T21:02:49.734Z,-14.73
2023-12-09T21:07:51.959Z,-14.73
2023-12-09T21:12:54.191Z,-14.69
2023-12-09T21:17:56.605Z,-14.58
2023-12-09T21:22:58.793Z,-14.66
2023-12-09T21:28:00.851Z,-14.60
2023-12-09T21:33:03.045Z,-14.58
2023-12-09T21:38:05.224Z,-14.55
2023-12-09T21:43:07.697Z,-14.51
2023-12-09T21:48:10.499Z,-14.56
2023-12-09T21:53:12.889Z,-14.65
2023-12-09T21:58:15.047Z,-14.67
2023-12-09T22:03:17.268Z,-14.74
2023-12-09T22:08:19.371Z,-14.72
2023-12-09T22:13:21.513Z,-14.60
2023-12-09T22:18:23.790Z,-14.63
2023-12-09T22:23:25.975Z,-14.67
2023-12-09T22:28:30.902Z,-14.70
2023-12-09T22:33:33.341Z,-14.65
2023-12-09T22:38:35.493Z,-14.56
2023-12-09T22:43:37.752Z,-14.57
2023-12-09T22:48:40.033Z,-14.45
2023-12-09T22:53:42.392Z,-14.51
2023-12-09T22:58:44.579Z,-14.45
2023-12-09T23:03:46.743Z,-14.42
2023-12-09T23:08:48.985Z,-14.51
2023-12-09T23:13:51.199Z,-14.36
2023-12-09T23:18:53.547Z,-14.45
2023-12-09T23:23:55.799Z,-14.53
2023-12-09T23:28:57.952Z,-14.43
2023-12-09T23:34:00.486Z,-14.35
2023-12-09T23:39:02.812Z,-14.35
2023-12-09T23:44:05.241Z,-14.27
2023-12-09T23:49:07.611Z,-14.32
2023-12-09T23:54:09.891Z,-14.15
2023-12-09T23:59:11.942Z,-14.29
